Time;durP1;ratioP1;P1;durP2;ratioP2;P2;SDS_P1;SDS_P2;PMS_P1;PMS_P2;Temp;Humidity;BMP_temperature;BMP_pressure;BME280_temperature;BME280_humidity;BME280_pressure;Samples;Min_cycle;Max_cycle;Signal;HPM_P1;HPM_P2
2022/03/27 00:00:54;;;;;;;15.47;7.03;;;;;;;8.71;42.02;96290.75;1756362;81;21074;-67
2022/03/27 00:03:21;;;;;;;15.73;7.20;;;;;;;8.60;41.41;96290.75;1756331;81;21022;-67
2022/03/27 00:05:47;;;;;;;15.53;6.90;;;;;;;8.48;42.68;96291.61;1756483;82;21006;-67
2022/03/27 00:08:14;;;;;;;18.87;7.97;;;;;;;8.35;43.22;96291.14;1756337;82;21061;-67
2022/03/27 00:13:25;;;;;;;12.77;6.97;;;;;;;8.28;42.51;96299.89;1756114;82;21504;-66
2022/03/27 00:15:52;;;;;;;13.73;6.87;;;;;;;8.21;44.18;96292.41;1756570;82;20971;-67
2022/03/27 00:18:18;;;;;;;15.73;7.03;;;;;;;8.18;44.27;96283.22;1756391;82;21051;-66
2022/03/27 00:20:45;;;;;;;12.57;6.90;;;;;;;8.18;43.19;96281.91;1755934;82;21122;-66
2022/03/27 00:23:11;;;;;;;14.90;6.07;;;;;;;8.21;43.27;96274.91;1756377;82;21023;-66
2022/03/27 00:25:39;;;;;;;13.13;7.00;;;;;;;8.23;43.58;96284.09;1755894;82;21027;-66
2022/03/27 00:28:06;;;;;;;14.27;7.00;;;;;;;8.31;43.15;96281.48;1756220;82;20970;-66
2022/03/27 00:30:33;;;;;;;10.10;6.10;;;;;;;8.34;43.71;96284.11;1756132;82;21142;-66
2022/03/27 00:33:00;;;;;;;17.17;6.63;;;;;;;8.41;43.57;96285.45;1756373;82;20983;-66
2022/03/27 00:35:27;;;;;;;14.90;6.97;;;;;;;8.39;45.16;96284.98;1756297;81;21014;-66
2022/03/27 00:37:54;;;;;;;11.97;7.13;;;;;;;8.29;46.45;96293.33;1756470;82;21050;-66
2022/03/27 00:40:21;;;;;;;13.40;6.73;;;;;;;8.23;46.37;96299.42;1755857;82;21489;-67
2022/03/27 00:42:48;;;;;;;14.83;7.97;;;;;;;8.19;45.72;96302.08;1756280;82;21030;-67
2022/03/27 00:45:15;;;;;;;20.77;7.97;;;;;;;8.26;44.48;96305.57;1756433;82;21090;-67
2022/03/27 00:47:43;;;;;;;14.17;7.10;;;;;;;8.32;43.69;96304.29;1756363;81;21517;-67
2022/03/27 00:50:10;;;;;;;13.93;6.53;;;;;;;8.41;44.76;96309.12;1756610;82;20987;-67
2022/03/27 00:52:37;;;;;;;15.73;9.10;;;;;;;8.41;44.33;96310.44;1756461;81;21549;-66
2022/03/27 00:55:05;;;;;;;17.80;7.70;;;;;;;8.41;43.75;96308.26;1756431;82;21023;-66
2022/03/27 00:57:31;;;;;;;14.90;7.43;;;;;;;8.44;44.82;96304.31;1756371;81;20994;-66
2022/03/27 00:59:58;;;;;;;14.77;7.53;;;;;;;8.45;44.15;96306.08;1756265;82;21499;-66
2022/03/27 01:02:26;;;;;;;19.90;8.00;;;;;;;8.47;43.65;96299.08;1756336;82;21003;-66
2022/03/27 01:04:55;;;;;;;17.33;7.73;;;;;;;8.48;43.64;96310.02;1756597;82;21094;-66
2022/03/27 01:07:22;;;;;;;16.10;8.17;;;;;;;8.52;43.99;96306.98;1756460;82;21006;-66
2022/03/27 01:09:50;;;;;;;16.83;7.63;;;;;;;8.58;44.54;96309.59;1756386;82;21003;-66
2022/03/27 01:12:24;;;;;;;18.23;8.00;;;;;;;8.63;44.66;96314.42;1756886;81;21485;-67
2022/03/27 01:14:53;;;;;;;14.33;7.73;;;;;;;8.68;44.18;96316.61;1768671;81;21014;-66
2022/03/27 01:17:25;;;;;;;13.60;7.53;;;;;;;8.70;44.30;96312.23;1768529;81;21057;-66
2022/03/27 01:19:55;;;;;;;17.63;7.83;;;;;;;8.72;44.39;96321.02;1768524;81;21002;-66
2022/03/27 01:22:23;;;;;;;16.47;9.10;;;;;;;8.76;44.22;96324.06;1768561;81;21058;-66
2022/03/27 01:24:52;;;;;;;12.77;7.80;;;;;;;8.88;44.45;96324.06;1768401;81;21441;-67
2022/03/27 01:27:19;;;;;;;14.43;8.33;;;;;;;8.94;45.44;96320.99;1768422;81;21050;-67
2022/03/27 01:29:46;;;;;;;17.93;8.60;;;;;;;8.99;45.10;96319.23;1768569;81;21018;-67
2022/03/27 01:32:14;;;;;;;16.33;8.20;;;;;;;9.03;44.85;96320.55;1768512;81;21037;-66
2022/03/27 01:34:44;;;;;;;17.67;9.20;;;;;;;9.05;45.67;96318.80;1768598;81;21007;-66
2022/03/27 01:37:14;;;;;;;12.43;8.03;;;;;;;9.08;46.11;96317.92;1768621;81;21536;-66
2022/03/27 01:39:40;;;;;;;17.70;8.00;;;;;;;9.12;46.98;96314.83;1768599;81;20982;-66
2022/03/27 01:42:08;;;;;;;16.27;7.93;;;;;;;9.13;47.26;96321.88;1768365;81;21555;-66
2022/03/27 01:44:35;;;;;;;19.53;8.83;;;;;;;9.12;46.57;96322.28;1768467;81;21003;-66
2022/03/27 01:47:03;;;;;;;14.13;8.03;;;;;;;9.08;47.45;96325.38;1768501;81;21007;-66
2022/03/27 01:49:30;;;;;;;13.43;8.30;;;;;;;9.08;47.74;96327.13;1768521;81;21010;-66
2022/03/27 01:51:56;;;;;;;13.50;7.80;;;;;;;9.05;48.84;96326.70;1768114;81;21620;-66
2022/03/27 01:54:23;;;;;;;13.53;8.00;;;;;;;9.04;50.25;96331.95;1768505;81;21017;-66
2022/03/27 01:56:50;;;;;;;15.93;8.57;;;;;;;9.02;49.78;96333.29;1768287;81;21014;-66
2022/03/27 01:59:20;;;;;;;21.07;8.00;;;;;;;8.99;51.53;96339.84;1768680;81;20962;-66
2022/03/27 02:01:45;;;;;;;11.07;7.63;;;;;;;8.99;50.68;96339.84;1768495;81;21006;-66
2022/03/27 02:04:13;;;;;;;11.13;7.17;;;;;;;9.00;52.26;96349.52;1768563;81;21022;-66
2022/03/27 02:06:39;;;;;;;13.67;7.80;;;;;;;8.98;54.05;96347.31;1768144;81;21026;-67
2022/03/27 02:09:06;;;;;;;12.80;6.83;;;;;;;8.99;52.13;96351.69;1768613;81;21475;-67
2022/03/27 02:11:33;;;;;;;13.67;7.60;;;;;;;9.01;52.43;96355.66;1768565;81;21045;-67
2022/03/27 02:14:00;;;;;;;16.07;7.83;;;;;;;9.01;53.20;96359.16;1760972;81;21528;-67
2022/03/27 02:16:26;;;;;;;13.37;7.27;;;;;;;9.02;53.65;96361.34;1756361;82;21083;-67
2022/03/27 02:18:53;;;;;;;10.93;6.60;;;;;;;8.98;55.45;96362.23;1756378;82;21492;-66
2022/03/27 02:21:19;;;;;;;8.93;5.43;;;;;;;8.98;55.03;96361.80;1756536;82;21014;-66
2022/03/27 02:23:46;;;;;;;9.77;6.47;;;;;;;8.93;57.05;96362.23;1756496;82;21006;-66
2022/03/27 02:26:13;;;;;;;11.60;5.70;;;;;;;8.85;58.25;96370.12;1756245;82;21050;-66
2022/03/27 02:28:40;;;;;;;9.67;5.73;;;;;;;8.84;58.23;96378.91;1756474;82;20983;-66
2022/03/27 02:31:08;;;;;;;8.33;5.00;;;;;;;8.81;58.98;96388.54;1756309;82;21042;-66
2022/03/27 02:33:36;;;;;;;7.80;5.37;;;;;;;8.75;60.19;96384.60;1756283;82;20997;-66
2022/03/27 02:36:06;;;;;;;7.87;5.20;;;;;;;8.71;60.69;96395.98;1756226;81;21108;-66
2022/03/27 02:38:34;;;;;;;10.37;5.87;;;;;;;8.65;61.53;96396.86;1756495;82;21542;-66
2022/03/27 02:41:00;;;;;;;13.33;6.63;;;;;;;8.61;61.58;96395.95;1756165;82;21069;-67
2022/03/27 02:43:27;;;;;;;7.37;5.57;;;;;;;8.57;61.46;96411.31;1756400;82;21122;-67
2022/03/27 02:45:54;;;;;;;9.20;4.80;;;;;;;8.52;62.05;96410.42;1756433;82;21034;-66
2022/03/27 02:48:22;;;;;;;11.07;6.03;;;;;;;8.49;61.19;96402.50;1756178;82;21091;-67
2022/03/27 02:50:48;;;;;;;8.20;5.37;;;;;;;8.43;61.48;96405.13;1756433;82;21015;-67
2022/03/27 02:53:15;;;;;;;9.10;5.77;;;;;;;8.40;60.28;96411.26;1756277;82;21018;-66
2022/03/27 02:55:41;;;;;;;8.60;5.67;;;;;;;8.36;59.77;96403.31;1756367;81;21051;-67
2022/03/27 02:58:09;;;;;;;8.90;5.80;;;;;;;8.34;59.61;96413.84;1755991;82;21098;-66
2022/03/27 03:00:37;;;;;;;8.57;5.43;;;;;;;8.30;59.05;96416.02;1756320;82;21016;-66
2022/03/27 03:03:03;;;;;;;7.83;5.40;;;;;;;8.26;59.32;96414.68;1756293;81;21017;-66
2022/03/27 03:05:30;;;;;;;7.67;5.40;;;;;;;8.23;59.23;96419.48;1756397;82;21011;-66
2022/03/27 03:07:58;;;;;;;10.80;5.97;;;;;;;8.19;58.79;96415.12;1756177;82;20995;-66
2022/03/27 03:10:25;;;;;;;8.40;5.63;;;;;;;8.15;58.30;96415.96;1756271;82;21030;-66
2022/03/27 03:12:52;;;;;;;10.27;5.93;;;;;;;8.10;58.47;96418.56;1756157;81;21015;-66
2022/03/27 03:15:20;;;;;;;13.13;6.03;;;;;;;8.06;58.69;96423.36;1756172;82;21038;-66
2022/03/27 03:17:46;;;;;;;8.57;5.67;;;;;;;8.01;58.46;96423.77;1756349;81;21000;-66
2022/03/27 03:20:14;;;;;;;11.00;6.40;;;;;;;8.01;58.15;96432.97;1756254;82;21074;-66
2022/03/27 03:22:42;;;;;;;11.27;7.23;;;;;;;7.96;59.03;96443.89;1756086;82;21069;-66
2022/03/27 03:25:09;;;;;;;12.40;7.23;;;;;;;7.86;59.87;96445.62;1756460;81;20979;-66
2022/03/27 03:27:37;;;;;;;12.37;7.50;;;;;;;7.78;60.70;96452.55;1756166;81;21548;-67
2022/03/27 03:30:06;;;;;;;15.50;8.13;;;;;;;7.70;61.06;96459.52;1756364;82;21013;-66
2022/03/27 03:32:34;;;;;;;12.30;7.93;;;;;;;7.61;61.59;96454.19;1756429;82;21066;-66
2022/03/27 03:35:01;;;;;;;22.13;8.97;;;;;;;7.51;61.87;96450.21;1756465;82;21026;-66
2022/03/27 03:37:28;;;;;;;13.00;8.77;;;;;;;7.36;62.06;96456.23;1755927;82;21523;-66
2022/03/27 03:39:54;;;;;;;11.43;7.53;;;;;;;7.14;62.29;96455.16;1756613;82;20990;-66
2022/03/27 03:42:21;;;;;;;13.83;8.80;;;;;;;6.98;62.46;96449.35;1756560;81;20967;-66
2022/03/27 03:44:48;;;;;;;12.27;9.10;;;;;;;6.81;62.83;96457.49;1756287;82;20994;-66
2022/03/27 03:47:14;;;;;;;12.50;8.30;;;;;;;6.65;63.05;96457.34;1756345;82;20998;-66
2022/03/27 03:49:41;;;;;;;13.63;8.90;;;;;;;6.52;63.57;96470.28;1756382;82;21019;-66
2022/03/27 03:52:08;;;;;;;11.33;8.03;;;;;;;6.41;63.31;96468.42;1756350;82;21043;-66
2022/03/27 03:54:36;;;;;;;12.83;8.73;;;;;;;6.28;63.63;96481.81;1756597;82;21058;-65
2022/03/27 03:57:05;;;;;;;15.40;8.70;;;;;;;6.16;64.14;96487.34;1755975;82;20966;-66
2022/03/27 03:59:33;;;;;;;14.77;8.23;;;;;;;6.06;63.84;96486.33;1756393;81;21468;-66
2022/03/27 04:02:01;;;;;;;13.70;7.63;;;;;;;5.97;63.73;96481.86;1756312;82;21062;-66
2022/03/27 04:04:30;;;;;;;13.37;6.90;;;;;;;5.89;64.22;96485.19;1756100;81;21074;-66
2022/03/27 04:06:56;;;;;;;12.23;7.40;;;;;;;5.78;64.52;96488.53;1756391;82;21019;-66
2022/03/27 04:09:23;;;;;;;15.77;8.17;;;;;;;5.71;64.02;96486.68;1756171;82;21057;-66
2022/03/27 04:11:51;;;;;;;11.83;7.90;;;;;;;5.63;63.70;96495.73;1755784;82;21086;-66
2022/03/27 04:14:18;;;;;;;11.83;6.97;;;;;;;5.55;63.67;96493.44;1756159;82;21122;-67
2022/03/27 04:16:45;;;;;;;11.30;7.03;;;;;;;5.49;63.71;96497.69;1756592;82;20987;-66
2022/03/27 04:19:12;;;;;;;12.30;6.87;;;;;;;5.45;63.10;96507.67;1756359;81;21014;-67
2022/03/27 04:21:39;;;;;;;11.83;7.47;;;;;;;5.40;63.30;96525.91;1756474;81;21002;-66
2022/03/27 04:24:08;;;;;;;9.23;6.50;;;;;;;5.34;63.05;96524.48;1756518;82;21476;-66
2022/03/27 04:26:35;;;;;;;8.37;5.63;;;;;;;5.31;62.86;96533.60;1756400;81;21528;-66
2022/03/27 04:29:03;;;;;;;11.33;7.10;;;;;;;5.20;63.50;96535.61;1756335;82;21018;-66
2022/03/27 04:31:31;;;;;;;10.13;6.23;;;;;;;5.19;62.91;96542.11;1756421;82;21496;-66
2022/03/27 04:33:58;;;;;;;8.97;6.37;;;;;;;5.13;62.85;96540.27;1756270;81;21023;-66
2022/03/27 04:36:25;;;;;;;11.07;7.20;;;;;;;5.06;62.73;96541.02;1756519;82;21038;-66
2022/03/27 04:38:51;;;;;;;11.90;6.73;;;;;;;4.99;62.77;96543.97;1756320;82;21082;-66
2022/03/27 04:41:18;;;;;;;13.87;7.13;;;;;;;4.98;62.65;96555.70;1756516;82;21002;-66
2022/03/27 04:43:47;;;;;;;8.93;4.50;;;;;;;4.94;62.54;96555.20;1756085;82;20999;-66
2022/03/27 04:46:15;;;;;;;9.87;6.27;;;;;;;4.92;62.33;96563.44;1756664;81;21010;-66
2022/03/27 04:48:43;;;;;;;10.27;6.17;;;;;;;4.91;62.15;96566.89;1756443;81;21051;-66
2022/03/27 04:51:11;;;;;;;9.10;6.33;;;;;;;4.91;62.13;96572.13;1756665;81;20990;-66
2022/03/27 04:53:38;;;;;;;10.90;6.43;;;;;;;4.92;61.60;96572.59;1756349;82;21066;-66
2022/03/27 04:56:06;;;;;;;9.13;6.67;;;;;;;4.97;61.26;96574.44;1756375;82;21019;-66
2022/03/27 04:58:32;;;;;;;12.07;6.93;;;;;;;5.02;61.43;96581.50;1756510;82;21034;-66
2022/03/27 05:00:59;;;;;;;10.83;6.50;;;;;;;5.02;61.39;96590.22;1756612;81;20991;-66
2022/03/27 05:03:25;;;;;;;8.80;5.23;;;;;;;5.05;60.93;96590.70;1756514;82;21011;-66
2022/03/27 05:05:52;;;;;;;10.73;6.20;;;;;;;5.07;60.89;96598.16;1756559;82;21026;-66
2022/03/27 05:08:20;;;;;;;9.80;6.73;;;;;;;5.12;60.77;96596.08;1756320;82;21457;-66
2022/03/27 05:10:47;;;;;;;8.47;6.00;;;;;;;5.17;60.41;96596.17;1756297;82;21061;-66
2022/03/27 05:13:18;;;;;;;10.00;5.50;;;;;;;5.24;60.22;96604.99;1756604;81;21063;-65
2022/03/27 05:15:45;;;;;;;8.70;6.27;;;;;;;5.26;59.55;96596.31;1755952;82;21038;-66
2022/03/27 05:18:12;;;;;;;10.93;6.00;;;;;;;5.28;59.64;96600.28;1756537;81;20990;-66
2022/03/27 05:20:41;;;;;;;9.43;5.93;;;;;;;5.34;59.44;96601.69;1756496;81;21504;-66
2022/03/27 05:23:09;;;;;;;9.10;6.20;;;;;;;5.35;58.55;96605.66;1729033;82;21023;-66
2022/03/27 05:25:45;;;;;;;15.70;6.47;;;;;;;5.35;58.63;96610.89;1756705;82;21006;-66
2022/03/27 05:28:13;;;;;;;10.20;6.83;;;;;;;5.33;58.80;96613.02;1756229;82;21003;-66
2022/03/27 05:30:41;;;;;;;10.23;6.63;;;;;;;5.33;58.62;96632.65;1756407;82;21019;-66
2022/03/27 05:33:08;;;;;;;9.87;6.80;;;;;;;5.32;58.76;96619.13;1756724;82;20999;-66
2022/03/27 05:35:36;;;;;;;11.53;7.37;;;;;;;5.36;58.71;96619.61;1756305;82;21022;-66
2022/03/27 05:38:03;;;;;;;12.40;6.77;;;;;;;5.40;58.42;96618.83;1756554;82;21086;-66
2022/03/27 05:40:30;;;;;;;11.60;7.03;;;;;;;5.38;58.08;96622.71;1756655;82;21027;-66
2022/03/27 05:42:57;;;;;;;10.33;6.97;;;;;;;5.35;58.17;96624.41;1756254;82;20963;-66
2022/03/27 05:45:24;;;;;;;13.87;7.07;;;;;;;5.35;58.18;96633.56;1756689;81;21065;-66
2022/03/27 05:47:50;;;;;;;11.00;7.43;;;;;;;5.34;58.16;96631.38;1756585;81;21022;-66
2022/03/27 05:50:19;;;;;;;10.50;6.50;;;;;;;5.35;58.25;96623.09;1756359;82;21499;-66
2022/03/27 05:52:46;;;;;;;10.20;6.80;;;;;;;5.40;58.33;96627.55;1756388;82;21094;-65
2022/03/27 05:55:13;;;;;;;8.97;6.10;;;;;;;5.53;58.19;96628.65;1756413;82;21475;-66
2022/03/27 05:57:42;;;;;;;9.67;6.37;;;;;;;5.59;57.32;96625.25;1756143;82;21070;-66
2022/03/27 06:00:12;;;;;;;11.20;6.57;;;;;;;5.66;56.84;96623.63;1756429;82;21619;-66
2022/03/27 06:02:40;;;;;;;7.90;5.77;;;;;;;5.73;56.73;96628.12;1756174;82;20995;-66
2022/03/27 06:05:09;;;;;;;9.40;6.07;;;;;;;5.82;57.10;96623.92;1756361;81;21034;-66
2022/03/27 06:07:47;;;;;;;11.23;7.03;;;;;;;5.92;56.86;96634.13;1756392;82;21086;-66
2022/03/27 06:10:15;;;;;;;12.20;6.60;;;;;;;6.00;56.01;96640.83;1756323;81;21066;-66
2022/03/27 06:12:43;;;;;;;13.73;7.00;;;;;;;6.11;56.31;96631.38;1756249;82;21046;-67
2022/03/27 06:15:12;;;;;;;15.50;7.70;;;;;;;6.14;55.72;96637.09;1756014;82;20991;-67
2022/03/27 06:17:42;;;;;;;10.27;6.37;;;;;;;6.10;55.13;96636.18;1756243;82;21551;-67
2022/03/27 06:20:13;;;;;;;11.90;6.37;;;;;;;6.18;55.25;96643.72;1756346;82;21066;-66
2022/03/27 06:22:40;;;;;;;12.13;7.03;;;;;;;6.20;55.64;96643.72;1756501;82;21022;-66
2022/03/27 06:25:11;;;;;;;9.83;6.10;;;;;;;6.21;55.14;96642.45;1756357;82;21002;-66
2022/03/27 06:27:38;;;;;;;9.33;6.30;;;;;;;6.26;55.09;96642.53;1756205;81;21014;-66
2022/03/27 06:30:11;;;;;;;12.30;5.87;;;;;;;6.37;55.48;96649.23;1756105;82;21002;-66
2022/03/27 06:32:37;;;;;;;;;;;;;;;6.46;55.15;96652.87;1758932;82;21022;-66
2022/03/27 06:35:11;;;;;;;11.43;6.43;;;;;;;6.56;54.99;96656.94;1756312;82;20103;-66
2022/03/27 06:37:39;;;;;;;11.50;6.55;;;;;;;6.62;54.40;96659.20;1756611;82;21046;-66
2022/03/27 06:40:08;;;;;;;11.23;6.63;;;;;;;6.69;54.04;96661.48;1756209;82;21575;-66
2022/03/27 06:42:36;;;;;;;12.53;8.17;;;;;;;6.75;53.94;96667.23;1756381;82;21472;-67
2022/03/27 06:45:04;;;;;;;13.73;7.77;;;;;;;6.85;53.89;96681.80;1756430;82;21525;-66
2022/03/27 06:47:32;;;;;;;9.00;5.90;;;;;;;6.92;53.22;96681.03;1756457;81;20990;-66
2022/03/27 06:50:01;;;;;;;12.70;8.00;;;;;;;6.91;53.38;96681.91;1756443;82;21549;-66
2022/03/27 06:52:29;;;;;;;11.57;6.13;;;;;;;7.00;53.13;96671.06;1756396;81;21473;-66
2022/03/27 06:54:56;;;;;;;14.23;8.30;;;;;;;7.00;52.11;96674.56;1756444;81;21569;-66
2022/03/27 06:57:23;;;;;;;13.00;6.70;;;;;;;7.08;52.69;96674.66;1756459;81;21006;-66
2022/03/27 07:05:22;;;;;;;10.67;6.70;;;;;;;7.19;50.98;96668.25;1756622;82;21044;-66
2022/03/27 07:07:49;;;;;;;9.80;7.17;;;;;;;7.26;49.02;96680.15;1756254;82;20975;-66
2022/03/27 07:10:16;;;;;;;11.10;5.90;;;;;;;7.24;49.08;96685.81;1756416;82;21472;-66
2022/03/27 07:12:44;;;;;;;12.87;6.67;;;;;;;7.23;49.01;96680.53;1756342;82;20980;-66
2022/03/27 07:15:10;;;;;;;9.07;5.73;;;;;;;7.33;49.44;96685.92;1761870;81;21022;-66
2022/03/27 07:17:49;;;;;;;11.53;5.87;;;;;;;7.37;49.50;96679.83;1768541;81;21065;-66
2022/03/27 07:20:24;;;;;;;9.70;6.90;;;;;;;7.49;49.56;96690.91;1768528;81;21512;-66
2022/03/27 07:22:56;;;;;;;9.03;6.37;;;;;;;7.64;48.83;96690.64;1768553;81;20987;-66
2022/03/27 07:25:26;;;;;;;10.73;7.43;;;;;;;7.64;48.44;96681.00;1768452;81;21045;-66
2022/03/27 07:27:54;;;;;;;9.40;6.67;;;;;;;7.66;48.19;96677.97;1768406;81;20982;-69
2022/03/27 07:30:21;;;;;;;9.83;6.10;;;;;;;7.70;47.95;96680.17;1768439;81;21507;-66
2022/03/27 07:32:48;;;;;;;10.23;6.73;;;;;;;7.67;47.65;96679.72;1768430;81;21018;-66
2022/03/27 07:35:15;;;;;;;9.10;6.33;;;;;;;7.85;47.41;96671.56;1768102;81;21105;-66
2022/03/27 07:37:44;;;;;;;8.07;6.20;;;;;;;7.86;46.65;96679.48;1768430;81;21016;-66
2022/03/27 07:40:13;;;;;;;13.47;6.77;;;;;;;7.97;46.85;96683.51;1768376;81;21026;-66
2022/03/27 07:42:46;;;;;;;9.97;6.93;;;;;;;8.00;46.45;96674.33;1768513;81;21543;-67
2022/03/27 07:45:14;;;;;;;8.80;5.17;;;;;;;8.13;46.03;96670.92;1768393;81;21053;-66
2022/03/27 07:47:42;;;;;;;9.23;5.90;;;;;;;8.23;46.04;96660.92;1768517;81;21010;-66
2022/03/27 07:50:11;;;;;;;8.57;5.60;;;;;;;8.36;46.08;96670.22;1768284;81;21010;-67
2022/03/27 07:52:40;;;;;;;13.43;6.10;;;;;;;8.44;45.62;96672.09;1768406;81;21022;-66
2022/03/27 07:55:09;;;;;;;8.23;4.83;;;;;;;8.45;45.36;96663.77;1768165;81;21097;-66
2022/03/27 07:57:35;;;;;;;9.03;5.67;;;;;;;8.58;44.66;96666.03;1768370;81;20962;-66
2022/03/27 08:00:04;;;;;;;10.27;6.20;;;;;;;8.60;45.26;96666.48;1768029;81;21118;-66
2022/03/27 08:02:33;;;;;;;7.63;5.57;;;;;;;8.66;44.00;96663.88;1766720;81;20993;-66
2022/03/27 08:04:59;;;;;;;9.23;5.87;;;;;;;8.75;43.09;96663.07;1768186;81;21089;-66
2022/03/27 08:07:26;;;;;;;10.17;5.07;;;;;;;8.86;42.96;96665.31;1768477;81;21010;-66
2022/03/27 08:09:52;;;;;;;9.77;6.30;;;;;;;9.05;43.01;96664.11;1768277;81;21563;-66
2022/03/27 08:12:20;;;;;;;7.47;4.90;;;;;;;9.16;43.11;96665.46;1768542;81;20997;-66
2022/03/27 08:14:48;;;;;;;8.57;5.50;;;;;;;9.21;39.96;96663.72;1765831;81;21098;-66
2022/03/27 08:17:16;;;;;;;7.93;5.03;;;;;;;9.29;39.48;96663.31;1756084;82;21031;-66
2022/03/27 08:19:45;;;;;;;10.70;5.50;;;;;;;9.38;40.28;96665.11;1756121;82;21094;-66
2022/03/27 08:22:11;;;;;;;7.90;5.23;;;;;;;9.48;39.95;96658.55;1756280;82;21432;-66
2022/03/27 08:24:38;;;;;;;5.87;4.53;;;;;;;9.62;40.05;96655.93;1756286;82;20998;-66
2022/03/27 08:27:07;;;;;;;6.60;4.23;;;;;;;9.67;38.03;96649.36;1756287;82;21020;-66
2022/03/27 08:29:38;;;;;;;11.67;5.80;;;;;;;9.78;37.71;96646.73;1756280;82;21519;-66
2022/03/27 08:32:07;;;;;;;9.47;5.07;;;;;;;9.88;38.14;96644.58;1756288;82;20999;-67
2022/03/27 08:34:37;;;;;;;7.77;5.00;;;;;;;10.01;37.96;96639.74;1756276;82;21069;-66
2022/03/27 08:37:08;;;;;;;9.97;5.10;;;;;;;10.13;35.96;96625.66;1756347;82;21484;-66
2022/03/27 08:39:36;;;;;;;8.07;4.60;;;;;;;10.36;37.33;96630.98;1755957;82;21102;-66
2022/03/27 08:42:05;;;;;;;7.27;4.90;;;;;;;10.46;34.86;96623.91;1756302;82;21064;-66
2022/03/27 08:44:34;;;;;;;7.43;5.50;;;;;;;10.53;34.61;96617.73;1756018;82;21010;-66
2022/03/27 08:47:00;;;;;;;7.23;5.23;;;;;;;10.63;34.95;96618.60;1756441;82;21014;-66
2022/03/27 08:49:32;;;;;;;7.37;4.83;;;;;;;10.67;34.67;96618.59;1756347;82;21054;-66
2022/03/27 08:52:09;;;;;;;7.20;4.67;;;;;;;10.70;35.43;96619.90;1756287;82;21022;-66
2022/03/27 08:54:42;;;;;;;7.00;4.93;;;;;;;10.85;33.23;96617.66;1756171;81;21088;-66
2022/03/27 08:57:45;;;;;;;8.13;4.53;;;;;;;10.98;32.72;96616.72;1756536;82;21018;-66
2022/03/27 09:00:13;;;;;;;5.33;3.53;;;;;;;11.01;31.22;96616.73;1755180;82;21062;-66
2022/03/27 09:02:41;;;;;;;5.73;4.00;;;;;;;11.16;31.36;96609.19;1756959;81;20983;-66
2022/03/27 09:05:09;;;;;;;6.43;4.20;;;;;;;11.20;30.80;96616.20;1756442;82;21018;-66
2022/03/27 09:07:35;;;;;;;5.83;4.30;;;;;;;11.38;31.19;96610.39;1756441;82;21002;-66
2022/03/27 09:10:07;;;;;;;5.77;4.03;;;;;;;11.51;30.65;96613.84;1756379;82;21097;-66
2022/03/27 09:12:35;;;;;;;6.07;3.63;;;;;;;11.65;28.00;96622.13;1728993;82;21026;-66
2022/03/27 09:15:10;;;;;;;8.13;3.77;;;;;;;11.63;27.95;96621.25;1756236;82;21500;-66
2022/03/27 09:17:59;;;;;;;5.30;3.97;;;;;;;11.78;28.19;96631.30;1756429;82;21035;-66
2022/03/27 09:20:42;;;;;;;5.50;3.80;;;;;;;11.91;28.94;96625.06;1751944;82;21133;-66
2022/03/27 09:23:27;;;;;;;4.75;3.65;;;;;;;12.01;28.44;96640.42;1756356;82;21023;-66
2022/03/27 09:26:02;;;;;;;4.37;3.27;;;;;;;12.02;26.99;96647.45;1756439;82;21011;-66
2022/03/27 09:28:34;;;;;;;4.97;3.70;;;;;;;12.09;27.46;96650.04;1756475;81;20967;-66
2022/03/27 09:31:21;;;;;;;9.03;4.07;;;;;;;12.20;28.47;96640.72;1756108;82;21023;-66
2022/03/27 09:33:59;;;;;;;6.40;3.97;;;;;;;12.15;28.16;96649.59;1753870;82;20987;-66
2022/03/27 09:36:39;;;;;;;7.50;4.57;;;;;;;12.15;26.38;96649.14;1756529;82;21485;-66
2022/03/27 09:39:17;;;;;;;7.23;4.07;;;;;;;11.97;26.33;96654.55;1755998;82;21064;-66
2022/03/27 09:42:03;;;;;;;6.20;4.23;;;;;;;11.78;27.03;96652.45;1756416;82;21030;-66
2022/03/27 09:44:34;;;;;;;7.17;4.60;;;;;;;12.07;28.01;96643.00;1756228;82;21043;-66
2022/03/27 09:47:05;;;;;;;5.87;3.87;;;;;;;12.20;27.17;96641.17;1756532;82;21102;-66
2022/03/27 09:49:39;;;;;;;8.40;6.17;;;;;;;12.28;27.74;96640.66;1756287;81;21011;-66
2022/03/27 09:52:17;;;;;;;6.60;4.33;;;;;;;12.35;26.94;96645.01;1756404;82;20977;-66
2022/03/27 09:54:54;;;;;;;8.00;4.77;;;;;;;12.21;28.02;96641.59;1756307;82;21560;-70
2022/03/27 09:57:30;;;;;;;6.60;4.03;;;;;;;12.22;28.42;96642.01;1756515;82;21023;-66
2022/03/27 10:00:20;;;;;;;7.00;4.33;;;;;;;12.08;25.72;96647.42;1756086;82;20987;-66
2022/03/27 10:02:51;;;;;;;6.57;4.60;;;;;;;12.08;26.46;96645.66;1756515;82;21010;-66
2022/03/27 10:05:20;;;;;;;5.57;3.40;;;;;;;12.09;25.23;96650.49;1756284;81;20995;-66
2022/03/27 10:07:53;;;;;;;7.20;3.60;;;;;;;12.39;25.15;96648.04;1756252;82;21500;-66
2022/03/27 10:10:24;;;;;;;7.80;5.43;;;;;;;12.60;22.75;96649.63;1756351;82;21058;-66
2022/03/27 10:12:54;;;;;;;5.67;4.40;;;;;;;12.63;23.21;96650.05;1756488;82;21002;-66
2022/03/27 10:15:29;;;;;;;10.47;4.30;;;;;;;12.75;25.39;96651.22;1756155;82;21002;-66
2022/03/27 10:18:08;;;;;;;7.27;4.87;;;;;;;12.84;24.41;96659.54;1756193;82;21007;-65
2022/03/27 10:20:35;;;;;;;6.87;4.20;;;;;;;12.72;23.98;96659.20;1755598;82;21046;-66
2022/03/27 10:23:11;;;;;;;7.07;3.97;;;;;;;12.36;23.89;96663.08;1756481;82;20967;-66
2022/03/27 10:25:46;;;;;;;5.35;4.12;;;;;;;12.21;24.20;96666.28;1755637;82;21035;-66
2022/03/27 10:28:14;;;;;;;6.67;4.23;;;;;;;12.15;25.63;96658.40;1754685;82;21023;-66
2022/03/27 10:30:42;;;;;;;6.50;4.23;;;;;;;12.29;25.77;96663.11;1756143;82;21019;-66
2022/03/27 10:33:10;;;;;;;5.10;3.67;;;;;;;12.44;25.43;96654.17;1756536;81;20971;-66
2022/03/27 10:35:54;;;;;;;4.43;3.70;;;;;;;12.40;26.28;96654.20;1756930;82;20994;-66
2022/03/27 10:38:42;;;;;;;9.33;4.33;;;;;;;12.81;25.66;96654.28;1756233;82;21019;-66
2022/03/27 10:41:47;;;;;;;8.77;3.93;;;;;;;12.77;25.21;96657.39;1756444;82;21023;-67
2022/03/27 10:44:25;;;;;;;6.87;3.87;;;;;;;12.74;25.48;96662.27;1756131;82;21015;-67
2022/03/27 10:47:19;;;;;;;5.90;3.93;;;;;;;12.88;25.25;96647.58;1756348;82;20991;-66
2022/03/27 10:50:08;;;;;;;4.92;3.35;;;;;;;13.02;24.99;96655.81;1756233;82;21031;-66
2022/03/27 10:52:52;;;;;;;8.77;3.83;;;;;;;13.17;26.14;96655.17;1736546;82;21099;-66
2022/03/27 10:55:19;;;;;;;4.50;3.13;;;;;;;13.42;25.16;96654.46;1755917;82;21018;-66
2022/03/27 10:57:52;;;;;;;6.83;3.33;;;;;;;13.37;23.10;96648.80;1756428;82;21492;-66
2022/03/27 11:00:41;;;;;;;5.60;3.00;;;;;;;13.36;23.52;96649.25;1755981;81;21042;-66
2022/03/27 11:03:07;;;;;;;4.90;3.27;;;;;;;13.45;23.77;96636.77;1756399;82;20967;-66
2022/03/27 11:05:41;;;;;;;9.10;3.47;;;;;;;13.59;24.04;96631.70;1755944;82;21027;-66
2022/03/27 11:08:25;;;;;;;3.43;2.67;;;;;;;13.71;22.92;96625.37;1756469;82;21003;-66
2022/03/27 11:10:59;;;;;;;7.10;2.83;;;;;;;14.00;24.06;96620.06;1756499;82;21027;-66
2022/03/27 11:13:31;;;;;;;;;;;;;;;14.24;21.69;96627.64;1758802;81;21069;-66
2022/03/27 11:16:12;;;;;;;6.80;2.70;;;;;;;14.21;21.62;96619.73;1756301;81;20095;-67
2022/03/27 11:18:43;;;;;;;3.98;2.95;;;;;;;14.80;20.83;96612.09;1756359;82;21122;-67
2022/03/27 11:21:30;;;;;;;4.92;2.65;;;;;;;15.08;20.18;96607.11;1755849;82;20988;-67
2022/03/27 11:24:09;;;;;;;4.62;2.75;;;;;;;15.17;19.89;96608.69;1755357;82;21094;-67
2022/03/27 11:26:36;;;;;;;5.47;3.00;;;;;;;15.59;19.01;96608.23;1756231;82;21091;-67
2022/03/27 11:29:19;;;;;;;4.10;2.70;;;;;;;15.68;18.18;96612.04;1756401;82;21007;-67
2022/03/27 11:32:07;;;;;;;3.83;2.85;;;;;;;15.83;18.87;96606.86;1756520;82;20987;-66
2022/03/27 11:34:34;;;;;;;4.12;2.50;;;;;;;16.29;18.44;96607.54;1755707;82;21033;-66
2022/03/27 11:37:14;;;;;;;3.12;2.27;;;;;;;16.59;18.02;96606.75;1728988;82;21433;-66
2022/03/27 11:39:41;;;;;;;2.95;2.52;;;;;;;16.52;16.91;96602.95;1756447;82;20983;-66
2022/03/27 11:42:32;;;;;;;4.37;3.10;;;;;;;16.87;17.40;96600.26;1756275;82;21070;-66
2022/03/27 11:45:16;;;;;;;5.55;3.02;;;;;;;17.51;17.63;96599.33;1755631;82;21038;-66
2022/03/27 11:47:48;;;;;;;3.05;2.60;;;;;;;17.73;15.74;96600.89;1756246;82;20959;-66
2022/03/27 11:50:23;;;;;;;4.28;2.98;;;;;;;17.74;15.77;96596.86;1755660;82;20999;-66
2022/03/27 11:52:50;;;;;;;3.85;2.60;;;;;;;17.61;15.73;96603.93;1756747;81;21476;-66
2022/03/27 11:55:22;;;;;;;5.30;2.42;;;;;;;17.59;15.32;96606.67;1756359;82;21022;-66
2022/03/27 11:57:53;;;;;;;4.28;2.33;;;;;;;17.51;14.76;96608.66;1755789;82;20991;-66